sensor_id;sensor_type;location;lat;lon;timestamp;temperature;humidity
13328;DHT22;6733;51.044;3.746;2022-11-25T00:02:18;11.30;99.90
13328;DHT22;6733;51.044;3.746;2022-11-25T00:04:45;11.30;99.90
13328;DHT22;6733;51.044;3.746;2022-11-25T00:07:11;11.20;99.90
13328;DHT22;6733;51.044;3.746;2022-11-25T00:09:37;11.20;99.90
13328;DHT22;6733;51.044;3.746;2022-11-25T00:12:03;11.20;99.90
13328;DHT22;6733;51.044;3.746;2022-11-25T00:14:29;11.10;99.90
13328;DHT22;6733;51.044;3.746;2022-11-25T00:16:55;11.10;99.90
13328;DHT22;6733;51.044;3.746;2022-11-25T00:19:21;11.00;99.90
13328;DHT22;6733;51.044;3.746;2022-11-25T00:21:47;11.00;99.90
13328;DHT22;6733;51.044;3.746;2022-11-25T00:24:14;11.00;99.90
13328;DHT22;6733;51.044;3.746;2022-11-25T00:26:41;11.00;99.90
13328;DHT22;6733;51.044;3.746;2022-11-25T00:29:09;11.00;99.90
13328;DHT22;6733;51.044;3.746;2022-11-25T00:31:37;11.00;99.90
13328;DHT22;6733;51.044;3.746;2022-11-25T00:34:04;11.00;99.90
13328;DHT22;6733;51.044;3.746;2022-11-25T00:36:32;11.00;99.90
13328;DHT22;6733;51.044;3.746;2022-11-25T00:39:02;10.90;99.90
13328;DHT22;6733;51.044;3.746;2022-11-25T00:41:29;10.90;99.90
13328;DHT22;6733;51.044;3.746;2022-11-25T00:44:18;10.80;99.90
13328;DHT22;6733;51.044;3.746;2022-11-25T00:47:09;10.80;99.90
13328;DHT22;6733;51.044;3.746;2022-11-25T00:49:37;10.80;99.90
13328;DHT22;6733;51.044;3.746;2022-11-25T00:52:03;10.70;99.90
13328;DHT22;6733;51.044;3.746;2022-11-25T00:54:30;10.70;99.90
13328;DHT22;6733;51.044;3.746;2022-11-25T00:56:57;10.70;99.90
13328;DHT22;6733;51.044;3.746;2022-11-25T00:59:23;10.70;99.90
13328;DHT22;6733;51.044;3.746;2022-11-25T01:01:49;10.70;99.90
13328;DHT22;6733;51.044;3.746;2022-11-25T01:04:16;10.70;99.90
13328;DHT22;6733;51.044;3.746;2022-11-25T01:06:42;10.60;99.90
13328;DHT22;6733;51.044;3.746;2022-11-25T01:09:10;10.60;99.90
13328;DHT22;6733;51.044;3.746;2022-11-25T01:11:36;10.60;99.90
13328;DHT22;6733;51.044;3.746;2022-11-25T01:14:03;10.50;99.90
13328;DHT22;6733;51.044;3.746;2022-11-25T01:16:29;10.50;99.90
13328;DHT22;6733;51.044;3.746;2022-11-25T01:18:58;10.50;99.90
13328;DHT22;6733;51.044;3.746;2022-11-25T01:21:27;10.40;99.90
13328;DHT22;6733;51.044;3.746;2022-11-25T01:23:54;10.40;99.90
13328;DHT22;6733;51.044;3.746;2022-11-25T01:26:22;10.40;99.90
13328;DHT22;6733;51.044;3.746;2022-11-25T01:28:52;10.40;99.90
13328;DHT22;6733;51.044;3.746;2022-11-25T01:31:21;10.40;99.90
13328;DHT22;6733;51.044;3.746;2022-11-25T01:33:53;10.40;99.90
13328;DHT22;6733;51.044;3.746;2022-11-25T01:36:20;10.40;99.90
13328;DHT22;6733;51.044;3.746;2022-11-25T01:38:50;10.40;99.90
13328;DHT22;6733;51.044;3.746;2022-11-25T01:41:16;10.40;99.90
13328;DHT22;6733;51.044;3.746;2022-11-25T01:43:43;10.40;99.90
13328;DHT22;6733;51.044;3.746;2022-11-25T01:46:23;10.40;99.90
13328;DHT22;6733;51.044;3.746;2022-11-25T01:48:54;10.40;99.90
13328;DHT22;6733;51.044;3.746;2022-11-25T01:54:16;10.40;99.90
13328;DHT22;6733;51.044;3.746;2022-11-25T01:56:46;10.40;99.90
13328;DHT22;6733;51.044;3.746;2022-11-25T01:59:14;10.40;99.90
13328;DHT22;6733;51.044;3.746;2022-11-25T02:01:40;10.40;99.90
13328;DHT22;6733;51.044;3.746;2022-11-25T02:04:08;10.30;99.90
13328;DHT22;6733;51.044;3.746;2022-11-25T02:06:41;10.20;99.90
13328;DHT22;6733;51.044;3.746;2022-11-25T02:09:10;10.20;99.90
13328;DHT22;6733;51.044;3.746;2022-11-25T02:11:39;10.10;99.90
13328;DHT22;6733;51.044;3.746;2022-11-25T02:14:07;10.10;99.90
13328;DHT22;6733;51.044;3.746;2022-11-25T02:16:34;10.00;99.90
13328;DHT22;6733;51.044;3.746;2022-11-25T02:19:00;10.00;99.90
13328;DHT22;6733;51.044;3.746;2022-11-25T02:21:44;10.00;99.90
13328;DHT22;6733;51.044;3.746;2022-11-25T02:24:30;9.90;99.90
13328;DHT22;6733;51.044;3.746;2022-11-25T02:26:59;9.90;99.90
13328;DHT22;6733;51.044;3.746;2022-11-25T02:29:26;9.90;99.90
13328;DHT22;6733;51.044;3.746;2022-11-25T02:31:52;9.90;99.90
13328;DHT22;6733;51.044;3.746;2022-11-25T02:34:19;9.90;99.90
13328;DHT22;6733;51.044;3.746;2022-11-25T02:36:45;9.90;99.90
13328;DHT22;6733;51.044;3.746;2022-11-25T02:39:11;9.80;99.90
13328;DHT22;6733;51.044;3.746;2022-11-25T02:41:51;9.80;99.90
13328;DHT22;6733;51.044;3.746;2022-11-25T02:44:18;9.80;99.90
13328;DHT22;6733;51.044;3.746;2022-11-25T02:46:45;9.80;99.90
13328;DHT22;6733;51.044;3.746;2022-11-25T02:49:11;9.80;99.90
13328;DHT22;6733;51.044;3.746;2022-11-25T02:51:39;9.80;99.90
13328;DHT22;6733;51.044;3.746;2022-11-25T02:54:06;9.80;99.90
13328;DHT22;6733;51.044;3.746;2022-11-25T02:56:34;9.80;99.90
13328;DHT22;6733;51.044;3.746;2022-11-25T02:59:02;9.70;99.90
13328;DHT22;6733;51.044;3.746;2022-11-25T03:01:29;9.70;99.90
13328;DHT22;6733;51.044;3.746;2022-11-25T03:03:56;9.70;99.90
13328;DHT22;6733;51.044;3.746;2022-11-25T03:06:22;9.70;99.90
13328;DHT22;6733;51.044;3.746;2022-11-25T03:08:48;9.80;99.90
13328;DHT22;6733;51.044;3.746;2022-11-25T03:11:14;9.80;99.90
13328;DHT22;6733;51.044;3.746;2022-11-25T03:13:40;9.80;99.90
13328;DHT22;6733;51.044;3.746;2022-11-25T03:16:07;9.80;99.90
13328;DHT22;6733;51.044;3.746;2022-11-25T03:18:33;9.80;99.90
13328;DHT22;6733;51.044;3.746;2022-11-25T03:20:59;9.80;99.90
13328;DHT22;6733;51.044;3.746;2022-11-25T03:23:25;9.90;99.90
13328;DHT22;6733;51.044;3.746;2022-11-25T03:25:51;9.90;99.90
13328;DHT22;6733;51.044;3.746;2022-11-25T03:28:17;9.90;99.90
13328;DHT22;6733;51.044;3.746;2022-11-25T03:30:43;9.90;99.90
13328;DHT22;6733;51.044;3.746;2022-11-25T03:33:10;10.00;99.90
13328;DHT22;6733;51.044;3.746;2022-11-25T03:35:36;10.00;99.90
13328;DHT22;6733;51.044;3.746;2022-11-25T03:38:02;10.10;99.90
13328;DHT22;6733;51.044;3.746;2022-11-25T03:40:28;10.10;99.90
13328;DHT22;6733;51.044;3.746;2022-11-25T03:42:54;10.10;99.90
13328;DHT22;6733;51.044;3.746;2022-11-25T03:45:20;10.10;99.90
13328;DHT22;6733;51.044;3.746;2022-11-25T03:47:46;10.20;99.90
13328;DHT22;6733;51.044;3.746;2022-11-25T03:50:13;10.20;99.90
13328;DHT22;6733;51.044;3.746;2022-11-25T03:52:40;10.20;99.90
13328;DHT22;6733;51.044;3.746;2022-11-25T03:55:06;10.30;99.90
13328;DHT22;6733;51.044;3.746;2022-11-25T03:57:33;10.30;99.90
13328;DHT22;6733;51.044;3.746;2022-11-25T03:59:59;10.30;99.90
13328;DHT22;6733;51.044;3.746;2022-11-25T04:02:25;10.30;99.90
13328;DHT22;6733;51.044;3.746;2022-11-25T04:04:51;10.30;99.90
13328;DHT22;6733;51.044;3.746;2022-11-25T04:07:17;10.30;99.90
13328;DHT22;6733;51.044;3.746;2022-11-25T04:09:43;10.30;99.90
13328;DHT22;6733;51.044;3.746;2022-11-25T04:12:10;10.30;99.90
13328;DHT22;6733;51.044;3.746;2022-11-25T04:14:54;10.30;99.90
13328;DHT22;6733;51.044;3.746;2022-11-25T04:17:20;10.20;99.90
13328;DHT22;6733;51.044;3.746;2022-11-25T04:19:46;10.30;99.90
13328;DHT22;6733;51.044;3.746;2022-11-25T04:22:12;10.30;99.90
13328;DHT22;6733;51.044;3.746;2022-11-25T04:24:38;10.20;99.90
13328;DHT22;6733;51.044;3.746;2022-11-25T04:27:04;10.20;99.90
13328;DHT22;6733;51.044;3.746;2022-11-25T04:29:31;10.20;99.90
13328;DHT22;6733;51.044;3.746;2022-11-25T04:31:57;10.20;99.90
13328;DHT22;6733;51.044;3.746;2022-11-25T04:34:23;10.20;99.90
13328;DHT22;6733;51.044;3.746;2022-11-25T04:36:49;10.20;99.90
13328;DHT22;6733;51.044;3.746;2022-11-25T04:39:15;10.10;99.90
13328;DHT22;6733;51.044;3.746;2022-11-25T04:41:41;10.10;99.90
13328;DHT22;6733;51.044;3.746;2022-11-25T04:44:08;10.00;99.90
13328;DHT22;6733;51.044;3.746;2022-11-25T04:46:40;10.00;99.90
13328;DHT22;6733;51.044;3.746;2022-11-25T04:49:07;9.90;99.90
13328;DHT22;6733;51.044;3.746;2022-11-25T04:51:33;9.90;99.90
13328;DHT22;6733;51.044;3.746;2022-11-25T04:53:59;9.90;99.90
13328;DHT22;6733;51.044;3.746;2022-11-25T04:56:25;9.80;99.90
13328;DHT22;6733;51.044;3.746;2022-11-25T04:58:51;9.80;99.90
13328;DHT22;6733;51.044;3.746;2022-11-25T05:01:53;9.80;99.90
13328;DHT22;6733;51.044;3.746;2022-11-25T05:04:19;9.70;99.90
13328;DHT22;6733;51.044;3.746;2022-11-25T05:06:45;9.70;99.90
13328;DHT22;6733;51.044;3.746;2022-11-25T05:09:11;9.60;99.90
13328;DHT22;6733;51.044;3.746;2022-11-25T05:11:38;9.60;99.90
13328;DHT22;6733;51.044;3.746;2022-11-25T05:14:04;9.50;99.90
13328;DHT22;6733;51.044;3.746;2022-11-25T05:16:30;9.50;99.90
13328;DHT22;6733;51.044;3.746;2022-11-25T05:18:56;9.40;99.90
13328;DHT22;6733;51.044;3.746;2022-11-25T05:21:22;9.40;99.90
13328;DHT22;6733;51.044;3.746;2022-11-25T05:23:48;9.40;99.90
13328;DHT22;6733;51.044;3.746;2022-11-25T05:26:14;9.30;99.90
13328;DHT22;6733;51.044;3.746;2022-11-25T05:28:40;9.30;99.90
13328;DHT22;6733;51.044;3.746;2022-11-25T05:31:06;9.40;99.90
13328;DHT22;6733;51.044;3.746;2022-11-25T05:33:33;9.40;99.90
13328;DHT22;6733;51.044;3.746;2022-11-25T05:36:01;9.40;99.90
13328;DHT22;6733;51.044;3.746;2022-11-25T05:38:28;9.40;99.90
13328;DHT22;6733;51.044;3.746;2022-11-25T05:41:03;9.40;99.90
13328;DHT22;6733;51.044;3.746;2022-11-25T05:43:29;9.30;99.90
13328;DHT22;6733;51.044;3.746;2022-11-25T05:45:55;9.30;99.90
13328;DHT22;6733;51.044;3.746;2022-11-25T05:48:22;9.20;99.90
13328;DHT22;6733;51.044;3.746;2022-11-25T05:50:48;9.20;99.90
13328;DHT22;6733;51.044;3.746;2022-11-25T05:53:14;9.20;99.90
13328;DHT22;6733;51.044;3.746;2022-11-25T05:55:42;9.10;99.90
13328;DHT22;6733;51.044;3.746;2022-11-25T05:58:08;9.10;99.90
13328;DHT22;6733;51.044;3.746;2022-11-25T06:00:35;9.00;99.90
13328;DHT22;6733;51.044;3.746;2022-11-25T06:03:01;9.00;99.90
13328;DHT22;6733;51.044;3.746;2022-11-25T06:05:27;9.00;99.90
13328;DHT22;6733;51.044;3.746;2022-11-25T06:07:53;9.00;99.90
13328;DHT22;6733;51.044;3.746;2022-11-25T06:10:19;9.00;99.90
13328;DHT22;6733;51.044;3.746;2022-11-25T06:12:45;9.00;99.90
13328;DHT22;6733;51.044;3.746;2022-11-25T06:15:11;9.00;99.90
13328;DHT22;6733;51.044;3.746;2022-11-25T06:17:37;9.10;99.90
13328;DHT22;6733;51.044;3.746;2022-11-25T06:20:05;9.10;99.90
13328;DHT22;6733;51.044;3.746;2022-11-25T06:22:32;9.10;99.90
13328;DHT22;6733;51.044;3.746;2022-11-25T06:24:58;9.10;99.90
13328;DHT22;6733;51.044;3.746;2022-11-25T06:27:24;9.10;99.90
13328;DHT22;6733;51.044;3.746;2022-11-25T06:29:50;9.10;99.90
13328;DHT22;6733;51.044;3.746;2022-11-25T06:32:16;9.10;99.90
13328;DHT22;6733;51.044;3.746;2022-11-25T06:34:43;9.10;99.90
13328;DHT22;6733;51.044;3.746;2022-11-25T06:37:09;9.10;99.90
13328;DHT22;6733;51.044;3.746;2022-11-25T06:39:35;9.00;99.90
13328;DHT22;6733;51.044;3.746;2022-11-25T06:42:01;9.10;99.90
13328;DHT22;6733;51.044;3.746;2022-11-25T06:44:27;9.10;99.90
13328;DHT22;6733;51.044;3.746;2022-11-25T06:46:53;9.10;99.90
13328;DHT22;6733;51.044;3.746;2022-11-25T06:49:19;9.10;99.90
13328;DHT22;6733;51.044;3.746;2022-11-25T06:51:45;9.20;99.90
13328;DHT22;6733;51.044;3.746;2022-11-25T06:54:13;9.20;99.90
13328;DHT22;6733;51.044;3.746;2022-11-25T06:56:40;9.20;99.90
13328;DHT22;6733;51.044;3.746;2022-11-25T06:59:06;9.20;99.90
13328;DHT22;6733;51.044;3.746;2022-11-25T07:01:32;9.30;99.90
13328;DHT22;6733;51.044;3.746;2022-11-25T07:04:02;9.30;99.90
13328;DHT22;6733;51.044;3.746;2022-11-25T07:06:30;9.30;99.90
13328;DHT22;6733;51.044;3.746;2022-11-25T07:08:57;9.30;99.90
13328;DHT22;6733;51.044;3.746;2022-11-25T07:11:31;9.40;99.90
13328;DHT22;6733;51.044;3.746;2022-11-25T07:14:00;9.40;99.90
13328;DHT22;6733;51.044;3.746;2022-11-25T07:16:27;9.40;99.90
13328;DHT22;6733;51.044;3.746;2022-11-25T07:18:54;9.50;99.90
13328;DHT22;6733;51.044;3.746;2022-11-25T07:21:22;9.40;99.90
13328;DHT22;6733;51.044;3.746;2022-11-25T07:23:50;9.50;99.90
13328;DHT22;6733;51.044;3.746;2022-11-25T07:26:19;9.50;99.90
13328;DHT22;6733;51.044;3.746;2022-11-25T07:28:47;9.40;99.90
13328;DHT22;6733;51.044;3.746;2022-11-25T07:31:17;9.40;99.90
13328;DHT22;6733;51.044;3.746;2022-11-25T07:33:44;9.40;99.90
13328;DHT22;6733;51.044;3.746;2022-11-25T07:38:55;9.50;99.90
13328;DHT22;6733;51.044;3.746;2022-11-25T07:41:23;9.60;99.90
13328;DHT22;6733;51.044;3.746;2022-11-25T07:43:56;9.60;99.90
13328;DHT22;6733;51.044;3.746;2022-11-25T07:48:51;9.60;99.90
13328;DHT22;6733;51.044;3.746;2022-11-25T07:55:08;9.60;99.90
13328;DHT22;6733;51.044;3.746;2022-11-25T07:57:34;9.60;99.90
13328;DHT22;6733;51.044;3.746;2022-11-25T08:00:00;9.60;99.90
13328;DHT22;6733;51.044;3.746;2022-11-25T08:02:27;9.60;99.90
13328;DHT22;6733;51.044;3.746;2022-11-25T08:04:53;9.40;99.90
13328;DHT22;6733;51.044;3.746;2022-11-25T08:07:19;9.30;99.90
13328;DHT22;6733;51.044;3.746;2022-11-25T08:09:45;9.20;99.90
13328;DHT22;6733;51.044;3.746;2022-11-25T08:12:11;9.20;99.90
13328;DHT22;6733;51.044;3.746;2022-11-25T08:14:37;9.10;99.90
13328;DHT22;6733;51.044;3.746;2022-11-25T08:17:03;9.10;99.90
13328;DHT22;6733;51.044;3.746;2022-11-25T08:19:31;9.10;99.90
13328;DHT22;6733;51.044;3.746;2022-11-25T08:21:57;9.10;99.90
13328;DHT22;6733;51.044;3.746;2022-11-25T08:24:23;9.00;99.90
13328;DHT22;6733;51.044;3.746;2022-11-25T08:26:49;8.90;99.90
13328;DHT22;6733;51.044;3.746;2022-11-25T08:29:17;8.90;99.90
13328;DHT22;6733;51.044;3.746;2022-11-25T08:31:44;8.80;99.90
13328;DHT22;6733;51.044;3.746;2022-11-25T08:34:18;8.80;99.90
13328;DHT22;6733;51.044;3.746;2022-11-25T08:36:45;8.80;99.90
13328;DHT22;6733;51.044;3.746;2022-11-25T08:39:11;8.80;99.90
13328;DHT22;6733;51.044;3.746;2022-11-25T08:41:37;8.70;99.90
13328;DHT22;6733;51.044;3.746;2022-11-25T08:44:05;8.80;99.90
13328;DHT22;6733;51.044;3.746;2022-11-25T08:46:34;8.80;99.90
13328;DHT22;6733;51.044;3.746;2022-11-25T08:49:03;8.80;99.90
13328;DHT22;6733;51.044;3.746;2022-11-25T08:51:31;8.90;99.90
13328;DHT22;6733;51.044;3.746;2022-11-25T08:53:57;9.10;99.90
13328;DHT22;6733;51.044;3.746;2022-11-25T08:56:25;9.10;99.90
13328;DHT22;6733;51.044;3.746;2022-11-25T08:58:51;9.10;99.90
13328;DHT22;6733;51.044;3.746;2022-11-25T09:01:18;9.20;99.90
13328;DHT22;6733;51.044;3.746;2022-11-25T09:03:48;9.10;99.90
13328;DHT22;6733;51.044;3.746;2022-11-25T09:06:16;9.10;99.90
13328;DHT22;6733;51.044;3.746;2022-11-25T09:08:43;9.10;99.90
13328;DHT22;6733;51.044;3.746;2022-11-25T09:11:10;9.20;99.90
13328;DHT22;6733;51.044;3.746;2022-11-25T09:13:37;9.20;99.90
13328;DHT22;6733;51.044;3.746;2022-11-25T09:16:03;9.20;99.90
13328;DHT22;6733;51.044;3.746;2022-11-25T09:18:29;9.30;99.90
13328;DHT22;6733;51.044;3.746;2022-11-25T09:20:58;9.30;99.90
13328;DHT22;6733;51.044;3.746;2022-11-25T09:23:25;9.20;99.90
13328;DHT22;6733;51.044;3.746;2022-11-25T09:25:53;9.20;99.90
13328;DHT22;6733;51.044;3.746;2022-11-25T09:28:20;9.20;99.90
13328;DHT22;6733;51.044;3.746;2022-11-25T09:30:46;9.10;99.90
13328;DHT22;6733;51.044;3.746;2022-11-25T09:33:13;9.30;99.90
13328;DHT22;6733;51.044;3.746;2022-11-25T09:35:39;9.30;99.90
13328;DHT22;6733;51.044;3.746;2022-11-25T09:38:05;9.30;99.90
13328;DHT22;6733;51.044;3.746;2022-11-25T09:40:49;9.40;99.90
13328;DHT22;6733;51.044;3.746;2022-11-25T09:43:38;9.40;99.90
13328;DHT22;6733;51.044;3.746;2022-11-25T09:46:44;9.50;99.90
13328;DHT22;6733;51.044;3.746;2022-11-25T09:49:36;9.60;99.90
13328;DHT22;6733;51.044;3.746;2022-11-25T09:52:24;9.60;99.90
13328;DHT22;6733;51.044;3.746;2022-11-25T09:57:54;9.80;99.90
13328;DHT22;6733;51.044;3.746;2022-11-25T10:00:22;9.90;99.90
13328;DHT22;6733;51.044;3.746;2022-11-25T10:05:43;10.00;99.90
13328;DHT22;6733;51.044;3.746;2022-11-25T10:08:15;10.00;99.90
13328;DHT22;6733;51.044;3.746;2022-11-25T10:10:51;10.10;99.90
13328;DHT22;6733;51.044;3.746;2022-11-25T10:13:36;10.10;99.90
13328;DHT22;6733;51.044;3.746;2022-11-25T10:16:05;10.20;99.90
13328;DHT22;6733;51.044;3.746;2022-11-25T10:18:46;10.30;99.90
13328;DHT22;6733;51.044;3.746;2022-11-25T10:21:18;10.40;99.90
13328;DHT22;6733;51.044;3.746;2022-11-25T10:23:44;10.40;99.90
13328;DHT22;6733;51.044;3.746;2022-11-25T10:26:15;10.50;99.90
13328;DHT22;6733;51.044;3.746;2022-11-25T10:29:41;10.50;99.90
13328;DHT22;6733;51.044;3.746;2022-11-25T10:32:23;10.60;99.90
13328;DHT22;6733;51.044;3.746;2022-11-25T10:34:57;10.70;99.90
13328;DHT22;6733;51.044;3.746;2022-11-25T10:37:35;10.70;99.90
13328;DHT22;6733;51.044;3.746;2022-11-25T10:40:04;10.80;99.90
13328;DHT22;6733;51.044;3.746;2022-11-25T10:42:30;10.80;99.90
13328;DHT22;6733;51.044;3.746;2022-11-25T10:44:57;10.90;99.90
13328;DHT22;6733;51.044;3.746;2022-11-25T10:47:33;10.90;99.90
13328;DHT22;6733;51.044;3.746;2022-11-25T10:50:26;11.00;99.90
13328;DHT22;6733;51.044;3.746;2022-11-25T10:53:12;11.00;99.90
13328;DHT22;6733;51.044;3.746;2022-11-25T10:55:57;11.10;99.90
13328;DHT22;6733;51.044;3.746;2022-11-25T10:58:32;11.10;99.90
13328;DHT22;6733;51.044;3.746;2022-11-25T11:01:20;11.20;99.90
13328;DHT22;6733;51.044;3.746;2022-11-25T11:04:04;11.30;99.90
13328;DHT22;6733;51.044;3.746;2022-11-25T11:06:36;11.30;99.90
13328;DHT22;6733;51.044;3.746;2022-11-25T11:09:03;11.40;99.90
13328;DHT22;6733;51.044;3.746;2022-11-25T11:11:29;11.70;99.90
13328;DHT22;6733;51.044;3.746;2022-11-25T11:14:18;11.60;99.90
13328;DHT22;6733;51.044;3.746;2022-11-25T11:16:52;11.60;99.90
13328;DHT22;6733;51.044;3.746;2022-11-25T11:19:27;11.70;99.90
13328;DHT22;6733;51.044;3.746;2022-11-25T11:21:55;11.80;99.90
13328;DHT22;6733;51.044;3.746;2022-11-25T11:27:04;11.90;99.90
13328;DHT22;6733;51.044;3.746;2022-11-25T11:29:30;12.30;99.90
13328;DHT22;6733;51.044;3.746;2022-11-25T11:32:03;12.20;99.90
13328;DHT22;6733;51.044;3.746;2022-11-25T11:42:42;12.00;99.90
13328;DHT22;6733;51.044;3.746;2022-11-25T11:48:24;12.30;99.90
13328;DHT22;6733;51.044;3.746;2022-11-25T11:51:00;12.40;99.90
13328;DHT22;6733;51.044;3.746;2022-11-25T11:59:05;12.60;99.90
13328;DHT22;6733;51.044;3.746;2022-11-25T12:04:34;12.40;99.90
13328;DHT22;6733;51.044;3.746;2022-11-25T12:09:58;12.60;99.90
13328;DHT22;6733;51.044;3.746;2022-11-25T12:12:36;12.70;99.90
13328;DHT22;6733;51.044;3.746;2022-11-25T12:15:14;12.60;99.90
13328;DHT22;6733;51.044;3.746;2022-11-25T12:17:46;12.70;99.90
13328;DHT22;6733;51.044;3.746;2022-11-25T12:20:18;12.70;99.90
13328;DHT22;6733;51.044;3.746;2022-11-25T12:22:58;12.80;99.90
13328;DHT22;6733;51.044;3.746;2022-11-25T12:25:33;12.60;99.90
13328;DHT22;6733;51.044;3.746;2022-11-25T12:28:15;12.60;99.90
13328;DHT22;6733;51.044;3.746;2022-11-25T12:31:10;12.70;99.90
13328;DHT22;6733;51.044;3.746;2022-11-25T12:36:35;12.50;99.90
13328;DHT22;6733;51.044;3.746;2022-11-25T12:39:22;12.50;99.90
13328;DHT22;6733;51.044;3.746;2022-11-25T12:41:58;12.50;99.90
13328;DHT22;6733;51.044;3.746;2022-11-25T12:47:13;12.30;99.90
13328;DHT22;6733;51.044;3.746;2022-11-25T12:49:48;12.20;99.90
13328;DHT22;6733;51.044;3.746;2022-11-25T12:57:39;12.30;99.90
13328;DHT22;6733;51.044;3.746;2022-11-25T13:05:58;12.30;99.90
13328;DHT22;6733;51.044;3.746;2022-11-25T13:14:01;12.20;99.90
13328;DHT22;6733;51.044;3.746;2022-11-25T13:16:29;12.30;99.90
13328;DHT22;6733;51.044;3.746;2022-11-25T13:18:56;12.30;99.90
13328;DHT22;6733;51.044;3.746;2022-11-25T13:21:22;12.30;99.90
13328;DHT22;6733;51.044;3.746;2022-11-25T13:23:54;12.30;99.90
13328;DHT22;6733;51.044;3.746;2022-11-25T13:28:59;12.40;99.90
13328;DHT22;6733;51.044;3.746;2022-11-25T13:31:34;12.50;99.90
13328;DHT22;6733;51.044;3.746;2022-11-25T13:36:51;12.60;99.90
13328;DHT22;6733;51.044;3.746;2022-11-25T13:39:29;12.70;99.90
13328;DHT22;6733;51.044;3.746;2022-11-25T13:42:22;12.60;99.90
13328;DHT22;6733;51.044;3.746;2022-11-25T13:44:57;12.50;99.90
13328;DHT22;6733;51.044;3.746;2022-11-25T13:47:44;12.50;99.90
13328;DHT22;6733;51.044;3.746;2022-11-25T13:52:45;12.40;99.90
13328;DHT22;6733;51.044;3.746;2022-11-25T13:57:47;12.40;99.90
13328;DHT22;6733;51.044;3.746;2022-11-25T14:02:42;12.30;99.90
13328;DHT22;6733;51.044;3.746;2022-11-25T14:24:29;12.60;99.90
13328;DHT22;6733;51.044;3.746;2022-11-25T14:26:59;12.50;99.90
13328;DHT22;6733;51.044;3.746;2022-11-25T14:29:35;12.50;99.90
13328;DHT22;6733;51.044;3.746;2022-11-25T14:32:23;13.40;99.90
13328;DHT22;6733;51.044;3.746;2022-11-25T14:35:01;13.20;99.90
13328;DHT22;6733;51.044;3.746;2022-11-25T14:37:44;14.60;99.90
13328;DHT22;6733;51.044;3.746;2022-11-25T14:40:20;15.30;99.90
13328;DHT22;6733;51.044;3.746;2022-11-25T14:42:50;14.90;99.90
13328;DHT22;6733;51.044;3.746;2022-11-25T14:45:25;14.20;99.90
13328;DHT22;6733;51.044;3.746;2022-11-25T14:47:51;15.00;99.90
13328;DHT22;6733;51.044;3.746;2022-11-25T14:50:17;14.40;99.90
13328;DHT22;6733;51.044;3.746;2022-11-25T14:52:44;13.40;99.90
13328;DHT22;6733;51.044;3.746;2022-11-25T14:55:23;12.70;99.90
13328;DHT22;6733;51.044;3.746;2022-11-25T14:57:51;12.40;99.90
13328;DHT22;6733;51.044;3.746;2022-11-25T15:00:17;12.20;99.90
13328;DHT22;6733;51.044;3.746;2022-11-25T15:02:54;12.10;99.90
13328;DHT22;6733;51.044;3.746;2022-11-25T15:05:23;12.00;99.90
13328;DHT22;6733;51.044;3.746;2022-11-25T15:08:10;11.90;99.90
13328;DHT22;6733;51.044;3.746;2022-11-25T15:10:49;11.90;99.90
13328;DHT22;6733;51.044;3.746;2022-11-25T15:13:50;11.80;99.90
13328;DHT22;6733;51.044;3.746;2022-11-25T15:16:21;11.70;99.90
13328;DHT22;6733;51.044;3.746;2022-11-25T15:18:56;11.70;99.90
13328;DHT22;6733;51.044;3.746;2022-11-25T15:21:34;11.60;99.90
13328;DHT22;6733;51.044;3.746;2022-11-25T15:24:02;11.50;99.90
13328;DHT22;6733;51.044;3.746;2022-11-25T15:26:32;11.40;99.90
13328;DHT22;6733;51.044;3.746;2022-11-25T15:29:11;11.50;99.90
13328;DHT22;6733;51.044;3.746;2022-11-25T15:31:38;11.30;99.90
13328;DHT22;6733;51.044;3.746;2022-11-25T15:34:10;11.20;99.90
13328;DHT22;6733;51.044;3.746;2022-11-25T15:36:36;11.20;99.90
13328;DHT22;6733;51.044;3.746;2022-11-25T15:39:32;11.20;99.90
13328;DHT22;6733;51.044;3.746;2022-11-25T15:42:15;11.10;99.90
13328;DHT22;6733;51.044;3.746;2022-11-25T15:44:58;11.10;99.90
13328;DHT22;6733;51.044;3.746;2022-11-25T15:47:29;11.00;99.90
13328;DHT22;6733;51.044;3.746;2022-11-25T15:50:03;11.00;99.90
13328;DHT22;6733;51.044;3.746;2022-11-25T15:52:35;10.90;99.90
13328;DHT22;6733;51.044;3.746;2022-11-25T15:55:07;10.80;99.90
13328;DHT22;6733;51.044;3.746;2022-11-25T15:57:36;10.90;99.90
13328;DHT22;6733;51.044;3.746;2022-11-25T16:00:21;10.80;99.90
13328;DHT22;6733;51.044;3.746;2022-11-25T16:02:53;10.80;99.90
13328;DHT22;6733;51.044;3.746;2022-11-25T16:05:31;10.70;99.90
13328;DHT22;6733;51.044;3.746;2022-11-25T16:08:22;10.70;99.90
13328;DHT22;6733;51.044;3.746;2022-11-25T16:10:51;10.70;99.90
13328;DHT22;6733;51.044;3.746;2022-11-25T16:21:27;10.50;99.90
13328;DHT22;6733;51.044;3.746;2022-11-25T16:27:06;10.60;99.90
13328;DHT22;6733;51.044;3.746;2022-11-25T16:30:28;10.60;99.90
13328;DHT22;6733;51.044;3.746;2022-11-25T16:32:35;10.60;99.90
13328;DHT22;6733;51.044;3.746;2022-11-25T16:35:13;10.60;99.90
13328;DHT22;6733;51.044;3.746;2022-11-25T16:37:40;10.70;99.90
13328;DHT22;6733;51.044;3.746;2022-11-25T16:40:10;10.70;99.90
13328;DHT22;6733;51.044;3.746;2022-11-25T16:42:37;10.70;99.90
13328;DHT22;6733;51.044;3.746;2022-11-25T16:45:18;10.70;99.90
13328;DHT22;6733;51.044;3.746;2022-11-25T16:47:45;10.70;99.90
13328;DHT22;6733;51.044;3.746;2022-11-25T16:50:13;10.70;99.90
13328;DHT22;6733;51.044;3.746;2022-11-25T16:52:39;10.70;99.90
13328;DHT22;6733;51.044;3.746;2022-11-25T16:55:06;10.80;99.90
13328;DHT22;6733;51.044;3.746;2022-11-25T16:57:32;10.90;99.90
13328;DHT22;6733;51.044;3.746;2022-11-25T16:59:59;10.90;99.90
13328;DHT22;6733;51.044;3.746;2022-11-25T17:02:32;10.90;99.90
13328;DHT22;6733;51.044;3.746;2022-11-25T17:05:01;10.90;99.90
13328;DHT22;6733;51.044;3.746;2022-11-25T17:07:36;10.90;99.90
13328;DHT22;6733;51.044;3.746;2022-11-25T17:10:03;10.90;99.90
13328;DHT22;6733;51.044;3.746;2022-11-25T17:12:31;10.90;99.90
13328;DHT22;6733;51.044;3.746;2022-11-25T17:14:58;10.90;99.90
13328;DHT22;6733;51.044;3.746;2022-11-25T17:17:25;10.90;99.90
13328;DHT22;6733;51.044;3.746;2022-11-25T17:19:52;10.90;99.90
13328;DHT22;6733;51.044;3.746;2022-11-25T17:22:24;10.90;99.90
13328;DHT22;6733;51.044;3.746;2022-11-25T17:24:51;10.90;99.90
13328;DHT22;6733;51.044;3.746;2022-11-25T17:27:26;10.80;99.90
13328;DHT22;6733;51.044;3.746;2022-11-25T17:29:54;10.70;99.90
13328;DHT22;6733;51.044;3.746;2022-11-25T17:32:20;10.70;99.90
13328;DHT22;6733;51.044;3.746;2022-11-25T17:34:47;10.70;99.90
13328;DHT22;6733;51.044;3.746;2022-11-25T17:37:18;10.70;99.90
13328;DHT22;6733;51.044;3.746;2022-11-25T17:39:45;10.70;99.90
13328;DHT22;6733;51.044;3.746;2022-11-25T17:42:16;10.60;99.90
13328;DHT22;6733;51.044;3.746;2022-11-25T17:44:43;10.60;99.90
13328;DHT22;6733;51.044;3.746;2022-11-25T17:47:12;10.60;99.90
13328;DHT22;6733;51.044;3.746;2022-11-25T17:49:38;10.50;99.90
13328;DHT22;6733;51.044;3.746;2022-11-25T17:52:05;10.50;99.90
13328;DHT22;6733;51.044;3.746;2022-11-25T17:54:31;10.50;99.90
13328;DHT22;6733;51.044;3.746;2022-11-25T17:56:57;10.40;99.90
13328;DHT22;6733;51.044;3.746;2022-11-25T17:59:26;10.40;99.90
13328;DHT22;6733;51.044;3.746;2022-11-25T18:01:53;10.30;99.90